Time;durP1;ratioP1;P1;durP2;ratioP2;P2;SDS_P1;SDS_P2;PMS_P1;PMS_P2;Temp;Humidity;BMP_temperature;BMP_pressure;BME280_temperature;BME280_humidity;BME280_pressure;Samples;Min_cycle;Max_cycle;Signal;HPM_P1;HPM_P2
2021/03/05 00:00:36;;;;;;;50.37;25.17;;;;;;;7.23;42.65;95110.22;5099603;28;20452;-68
2021/03/05 00:03:04;;;;;;;46.45;23.25;;;;;;;7.33;42.82;95112.25;5093736;28;20526;-65
2021/03/05 00:05:37;;;;;;;47.50;23.23;;;;;;;7.45;42.19;95105.19;5099704;28;20219;-65
2021/03/05 00:08:05;;;;;;;42.43;23.73;;;;;;;7.38;42.48;95118.38;5094148;28;20842;-65
2021/03/05 00:10:33;;;;;;;41.92;24.17;;;;;;;7.13;43.65;95105.59;5099655;28;20441;-68
2021/03/05 00:13:00;;;;;;;48.50;22.63;;;;;;;7.33;43.08;95099.22;5093928;28;20198;-67
2021/03/05 00:15:33;;;;;;;43.70;22.73;;;;;;;6.91;43.87;95102.00;5100709;28;20514;-66
2021/03/05 00:18:00;;;;;;;45.67;21.70;;;;;;;7.01;42.21;95102.22;5094283;28;20515;-68
2021/03/05 00:20:29;;;;;;;45.13;22.20;;;;;;;7.05;42.27;95098.16;5098474;28;20998;-68
2021/03/05 00:22:55;;;;;;;38.10;21.50;;;;;;;7.12;42.30;95104.03;5093858;28;20455;-67
2021/03/05 00:25:22;;;;;;;40.57;21.30;;;;;;;7.00;41.60;95100.66;5099454;28;20471;-67
2021/03/05 00:27:48;;;;;;;44.00;20.98;;;;;;;7.18;41.14;95097.91;5093186;28;20444;-67
2021/03/05 00:30:16;;;;;;;39.92;21.67;;;;;;;7.10;41.77;95093.03;5099205;28;20214;-69
2021/03/05 00:32:43;;;;;;;40.07;20.80;;;;;;;7.00;41.64;95095.44;5093353;28;20561;-68
2021/03/05 00:35:13;;;;;;;37.80;21.37;;;;;;;7.01;42.09;95086.59;5099621;28;20951;-66
2021/03/05 00:37:40;;;;;;;41.00;22.17;;;;;;;7.00;42.78;95100.66;5092247;28;20451;-66
2021/03/05 00:40:08;;;;;;;39.70;20.73;;;;;;;6.93;42.96;95104.38;5099297;28;20850;-67
2021/03/05 00:42:35;;;;;;;38.92;21.55;;;;;;;6.86;42.96;95096.66;5092491;28;20934;-66
2021/03/05 00:45:03;;;;;;;40.67;21.00;;;;;;;7.05;42.24;95087.72;5098248;28;20210;-66
2021/03/05 00:47:30;;;;;;;37.97;21.23;;;;;;;7.02;42.38;95090.00;5089380;28;20536;-67
2021/03/05 00:49:56;;;;;;;38.90;21.33;;;;;;;6.82;42.69;95095.56;5100525;28;20445;-67
2021/03/05 00:52:23;;;;;;;42.53;21.65;;;;;;;7.03;42.29;95091.56;5089382;28;20839;-66
2021/03/05 00:54:50;;;;;;;40.73;21.27;;;;;;;6.49;43.61;95087.50;5101642;28;20292;-66
2021/03/05 00:57:17;;;;;;;38.70;22.00;;;;;;;6.49;43.64;95091.91;5090843;28;20532;-66
2021/03/05 00:59:43;;;;;;;42.50;21.70;;;;;;;6.48;43.73;95079.94;5102580;28;20481;-67
2021/03/05 01:02:09;;;;;;;43.03;21.67;;;;;;;6.53;43.27;95083.41;5090415;28;20540;-68
2021/03/05 01:04:36;;;;;;;48.87;21.47;;;;;;;6.65;43.64;95092.03;5099760;28;20563;-67
2021/03/05 01:07:03;;;;;;;40.67;20.42;;;;;;;6.75;42.77;95081.84;5090582;28;20974;-66
2021/03/05 01:09:31;;;;;;;35.88;20.45;;;;;;;6.54;43.17;95069.41;5096795;28;20267;-67
2021/03/05 01:11:58;;;;;;;37.58;20.52;;;;;;;6.60;43.72;95070.31;5094381;28;20226;-64
2021/03/05 01:14:24;;;;;;;40.33;20.63;;;;;;;6.51;43.52;95069.84;5100816;28;20209;-66
2021/03/05 01:16:50;;;;;;;39.40;20.02;;;;;;;6.44;42.79;95066.53;5090083;28;20190;-63
2021/03/05 01:19:17;;;;;;;33.03;19.00;;;;;;;6.19;42.80;95071.16;5100242;28;20214;-66
2021/03/05 01:21:43;;;;;;;33.05;19.35;;;;;;;5.92;43.49;95067.38;5090306;28;20202;-68
2021/03/05 01:24:11;;;;;;;35.13;19.30;;;;;;;5.73;43.66;95065.81;5100057;28;20680;-68
2021/03/05 01:26:49;;;;;;;39.53;19.70;;;;;;;5.78;43.82;95068.53;5089803;28;20668;-68
2021/03/05 01:29:16;;;;;;;34.60;18.98;;;;;;;5.74;44.04;95068.19;5100066;28;20186;-66
2021/03/05 01:31:42;;;;;;;38.30;19.10;;;;;;;5.91;43.63;95071.00;5089601;28;20213;-65
2021/03/05 01:34:09;;;;;;;35.15;19.17;;;;;;;5.90;44.05;95067.59;5099121;28;20206;-66
2021/03/05 01:36:36;;;;;;;42.50;20.35;;;;;;;5.85;44.73;95074.47;5090865;28;20191;-65
2021/03/05 01:39:03;;;;;;;35.28;18.35;;;;;;;5.60;45.20;95068.59;5098539;28;20218;-67
2021/03/05 01:41:30;;;;;;;38.63;19.27;;;;;;;5.25;45.78;95062.44;5091103;28;20256;-68
2021/03/05 01:43:57;;;;;;;38.95;20.35;;;;;;;5.48;45.97;95072.94;5097679;28;20195;-69
2021/03/05 01:46:23;;;;;;;33.33;19.85;;;;;;;5.54;45.79;95077.25;5092327;28;20195;-68
2021/03/05 01:48:51;;;;;;;37.92;19.85;;;;;;;5.54;46.01;95064.25;5096915;28;20577;-66
2021/03/05 01:51:30;;;;;;;43.75;20.38;;;;;;;5.78;45.21;95069.34;5092702;28;20712;-64
2021/03/05 01:53:56;;;;;;;37.25;20.17;;;;;;;5.79;45.34;95070.13;5097310;28;20201;-65
2021/03/05 01:56:31;;;;;;;43.13;19.85;;;;;;;5.56;46.39;95068.25;5092301;28;20199;-66
2021/03/05 01:58:58;;;;;;;37.80;20.58;;;;;;;5.43;46.60;95070.19;5096117;28;20236;-66
2021/03/05 02:01:28;;;;;;;33.60;19.98;;;;;;;5.46;46.78;95067.16;5092673;28;20305;-67
2021/03/05 02:03:55;;;;;;;38.35;20.70;;;;;;;5.55;46.42;95073.63;5097281;28;20250;-66
2021/03/05 02:06:22;;;;;;;35.03;19.48;;;;;;;5.82;45.79;95059.28;5091819;28;20229;-67
2021/03/05 02:08:48;;;;;;;41.33;20.10;;;;;;;5.72;45.97;95065.03;5096082;28;20205;-65
2021/03/05 02:11:24;;;;;;;41.00;20.25;;;;;;;5.70;45.67;95072.25;5093110;28;20211;-66
2021/03/05 02:13:54;;;;;;;43.10;21.13;;;;;;;5.65;46.21;95068.72;5096532;28;20194;-65
2021/03/05 02:16:54;;;;;;;43.08;19.85;;;;;;;5.64;46.29;95075.72;5092001;28;20205;-65
2021/03/05 02:20:03;;;;;;;41.15;20.00;;;;;;;5.51;46.44;95082.91;5063736;28;20310;-65
2021/03/05 02:22:57;;;;;;;37.58;20.33;;;;;;;5.59;46.49;95079.97;5089589;28;20996;-64
2021/03/05 02:25:48;;;;;;;38.30;19.95;;;;;;;5.60;46.67;95081.59;5097810;28;20198;-66
2021/03/05 02:28:18;;;;;;;39.50;20.30;;;;;;;5.62;46.66;95074.38;5092134;28;20207;-65
2021/03/05 02:31:10;;;;;;;39.67;20.52;;;;;;;5.66;46.20;95076.28;5100328;28;20231;-65
2021/03/05 02:33:44;;;;;;;41.42;20.48;;;;;;;5.61;46.32;95068.38;5102989;28;20209;-66
2021/03/05 02:36:17;;;;;;;43.22;20.48;;;;;;;5.51;46.12;95075.88;5099221;28;20202;-66
2021/03/05 02:38:55;;;;;;;37.58;20.65;;;;;;;5.36;46.59;95074.69;5097681;28;20571;-65
2021/03/05 02:41:22;;;;;;;37.63;19.88;;;;;;;5.11;47.19;95075.56;5091756;28;20586;-68
2021/03/05 02:43:52;;;;;;;38.05;20.00;;;;;;;5.29;46.71;95084.38;5099527;28;20225;-66
2021/03/05 02:46:19;;;;;;;33.65;19.48;;;;;;;5.04;47.55;95082.63;5096063;28;20207;-68
2021/03/05 02:48:49;;;;;;;42.45;20.77;;;;;;;4.90;47.49;95086.38;5099568;28;20202;-65
2021/03/05 02:51:18;;;;;;;34.55;18.90;;;;;;;5.09;46.89;95087.97;5096551;28;20195;-67
2021/03/05 02:53:47;;;;;;;34.60;18.85;;;;;;;5.18;46.34;95083.31;5099061;28;20843;-67
2021/03/05 02:56:17;;;;;;;45.47;19.80;;;;;;;5.36;46.24;95085.88;5097008;28;20207;-69
2021/03/05 02:58:47;;;;;;;40.70;18.48;;;;;;;5.47;45.51;95081.75;5098461;28;20230;-64
2021/03/05 03:01:16;;;;;;;35.85;19.90;;;;;;;5.12;46.38;95089.34;5096929;28;20191;-67
2021/03/05 03:03:43;;;;;;;31.95;17.05;;;;;;;4.87;46.32;95052.28;5098229;28;20185;-67
2021/03/05 03:06:11;;;;;;;35.83;19.27;;;;;;;4.70;47.60;95085.78;5096571;28;20963;-65
2021/03/05 03:08:39;;;;;;;42.70;18.25;;;;;;;4.61;48.12;95101.84;5097488;28;20205;-66
2021/03/05 03:11:07;;;;;;;44.47;21.13;;;;;;;4.51;48.29;95094.53;5097460;28;20195;-67
2021/03/05 03:13:35;;;;;;;38.83;20.00;;;;;;;4.55;48.33;95092.31;5097430;28;20831;-67
2021/03/05 03:16:07;;;;;;;37.42;19.45;;;;;;;4.54;48.43;95091.53;5098056;28;20191;-66
2021/03/05 03:18:36;;;;;;;38.28;19.92;;;;;;;4.70;47.62;95090.97;5096476;28;20240;-67
2021/03/05 03:21:06;;;;;;;35.60;20.08;;;;;;;4.73;47.90;95094.94;5097617;28;20191;-66
2021/03/05 03:23:33;;;;;;;36.65;19.35;;;;;;;4.64;48.15;95091.03;5096371;28;20179;-66
2021/03/05 03:26:01;;;;;;;34.15;18.45;;;;;;;4.77;47.32;95085.72;5098753;28;20218;-66
2021/03/05 03:28:28;;;;;;;37.42;19.35;;;;;;;4.88;47.45;95098.78;5095644;28;20214;-65
2021/03/05 03:30:55;;;;;;;33.42;19.38;;;;;;;4.83;47.34;95100.44;5098589;28;20191;-66
2021/03/05 03:33:21;;;;;;;35.47;19.08;;;;;;;4.76;47.92;95105.69;5094910;28;20606;-64
2021/03/05 03:35:49;;;;;;;35.30;18.65;;;;;;;4.91;47.32;95107.94;5099390;27;20241;-65
2021/03/05 03:38:17;;;;;;;31.65;18.60;;;;;;;5.01;47.64;95098.66;5093706;28;20215;-65
2021/03/05 03:40:44;;;;;;;36.67;19.05;;;;;;;4.83;47.32;95090.06;5103762;28;20724;-65
2021/03/05 03:43:10;;;;;;;31.83;18.33;;;;;;;5.02;46.58;95099.44;5106237;28;20191;-66
2021/03/05 03:45:40;;;;;;;36.95;18.50;;;;;;;4.99;47.03;95095.47;5100185;28;20199;-65
2021/03/05 03:48:07;;;;;;;36.60;19.08;;;;;;;4.89;47.08;95094.41;5093651;28;20191;-68
2021/03/05 03:50:49;;;;;;;40.83;19.25;;;;;;;4.95;46.94;95104.72;5100408;28;20191;-67
2021/03/05 03:53:20;;;;;;;39.22;19.60;;;;;;;5.08;46.48;95104.56;5093742;28;20203;-67
2021/03/05 03:55:51;;;;;;;41.83;18.35;;;;;;;5.03;46.69;95107.03;5103359;28;20213;-66
2021/03/05 03:58:23;;;;;;;36.47;19.05;;;;;;;4.66;47.53;95104.59;5104839;28;20230;-68
2021/03/05 04:00:53;;;;;;;32.72;18.08;;;;;;;4.62;47.86;95106.81;5099044;28;20199;-66
2021/03/05 04:03:24;;;;;;;42.50;19.50;;;;;;;4.32;48.83;95107.69;5094372;28;20214;-66
2021/03/05 04:05:53;;;;;;;41.35;19.58;;;;;;;4.53;48.25;95108.09;5098435;28;20300;-65
2021/03/05 04:08:35;;;;;;;39.47;19.23;;;;;;;4.06;49.42;95095.69;5094342;28;20575;-66
2021/03/05 04:11:03;;;;;;;39.83;19.63;;;;;;;3.98;49.55;95106.31;5097592;28;20557;-66
2021/03/05 04:13:31;;;;;;;43.80;18.98;;;;;;;3.99;50.09;95107.91;5095340;28;20194;-64
2021/03/05 04:15:59;;;;;;;47.85;20.10;;;;;;;4.32;49.00;95111.06;5097510;28;20195;-66
2021/03/05 04:18:31;;;;;;;41.08;19.27;;;;;;;4.32;48.90;95112.88;5094555;28;20219;-65
2021/03/05 04:21:01;;;;;;;39.08;19.95;;;;;;;4.51;48.81;95117.09;5097545;28;20187;-66
2021/03/05 04:23:28;;;;;;;44.35;19.77;;;;;;;4.50;48.86;95111.13;5095057;28;20203;-67
2021/03/05 04:25:54;;;;;;;40.85;18.55;;;;;;;4.61;48.87;95112.22;5097907;28;20198;-64
2021/03/05 04:28:21;;;;;;;36.83;18.45;;;;;;;4.32;49.43;95118.84;5093694;28;20202;-66
2021/03/05 04:30:47;;;;;;;44.15;22.75;;;;;;;4.01;50.25;95124.06;5098478;27;20676;-64
2021/03/05 04:33:14;;;;;;;48.60;24.67;;;;;;;4.07;50.61;95120.59;5093300;28;20187;-66
2021/03/05 04:35:41;;;;;;;67.28;29.30;;;;;;;3.98;51.31;95127.84;5098574;28;20312;-66
2021/03/05 04:38:07;;;;;;;61.88;31.00;;;;;;;3.88;51.39;95131.91;5092970;28;20199;-65
2021/03/05 04:40:33;;;;;;;73.28;36.22;;;;;;;3.86;51.78;95133.91;5099352;28;20207;-67
2021/03/05 04:43:00;;;;;;;78.95;37.20;;;;;;;3.89;51.37;95134.28;5093016;28;20193;-65
2021/03/05 04:45:26;;;;;;;94.55;39.33;;;;;;;3.97;51.12;95135.84;5099384;28;20210;-66
2021/03/05 04:47:52;;;;;;;100.50;44.67;;;;;;;3.96;51.14;95126.47;5092610;28;20664;-66
2021/03/05 04:50:19;;;;;;;99.50;45.33;;;;;;;3.90;51.18;95130.72;5099583;28;20197;-65
2021/03/05 04:52:45;;;;;;;119.00;54.53;;;;;;;3.67;51.80;95106.28;5107776;28;20193;-66
2021/03/05 04:55:12;;;;;;;140.65;61.28;;;;;;;3.97;51.29;95130.66;5101528;28;20210;-65
2021/03/05 04:57:39;;;;;;;130.57;59.53;;;;;;;3.88;51.75;95131.91;5108911;28;20194;-66
2021/03/05 05:00:06;;;;;;;130.07;58.20;;;;;;;3.85;51.60;95127.16;5098789;28;20627;-65
2021/03/05 05:02:32;;;;;;;134.50;58.80;;;;;;;3.89;51.70;95128.28;5100579;28;20217;-63
2021/03/05 05:04:58;;;;;;;126.18;59.90;;;;;;;4.01;51.42;95131.84;5106936;28;20230;-64
2021/03/05 05:07:25;;;;;;;134.25;58.97;;;;;;;3.89;51.88;95128.28;5092833;28;20198;-66
2021/03/05 05:09:51;;;;;;;123.55;56.35;;;;;;;3.87;52.00;95140.66;5090678;28;20195;-67
2021/03/05 05:12:19;;;;;;;129.10;56.13;;;;;;;3.85;52.13;95137.53;5090259;28;20660;-65
2021/03/05 05:14:46;;;;;;;124.85;56.40;;;;;;;3.75;52.44;95134.56;5090362;28;20206;-66
2021/03/05 05:17:13;;;;;;;122.60;54.85;;;;;;;3.88;52.08;95139.69;5090541;28;20723;-64
2021/03/05 05:19:40;;;;;;;124.18;54.28;;;;;;;3.81;52.08;95141.53;5090277;28;20338;-65
2021/03/05 05:22:06;;;;;;;114.18;53.03;;;;;;;4.00;52.11;95145.78;5091133;28;20193;-63
2021/03/05 05:24:32;;;;;;;111.53;51.17;;;;;;;4.23;50.99;95134.88;5089940;28;20192;-63
2021/03/05 05:26:59;;;;;;;127.50;49.58;;;;;;;4.36;51.07;95135.56;5095085;28;20201;-63
2021/03/05 05:29:29;;;;;;;109.45;49.42;;;;;;;4.35;51.33;95149.56;5110454;28;20222;-66
2021/03/05 05:31:56;;;;;;;109.57;50.90;;;;;;;4.24;51.85;95147.63;5110746;28;20685;-64
2021/03/05 05:34:22;;;;;;;125.45;53.75;;;;;;;4.26;51.65;95143.03;5108304;28;20237;-72
2021/03/05 05:36:50;;;;;;;123.50;53.53;;;;;;;4.31;51.47;95153.56;5090156;28;20233;-66
2021/03/05 05:39:39;;;;;;;121.53;52.25;;;;;;;4.14;52.28;95149.91;5089759;28;20636;-64
2021/03/05 05:42:07;;;;;;;118.15;52.15;;;;;;;4.12;51.79;95157.09;5089769;28;20281;-65
2021/03/05 05:44:34;;;;;;;133.63;54.58;;;;;;;3.96;52.95;95149.78;5090087;28;20201;-66
2021/03/05 05:47:01;;;;;;;110.78;49.67;;;;;;;4.15;52.58;95164.44;5109697;28;20590;-68
2021/03/05 05:49:28;;;;;;;119.00;51.22;;;;;;;3.82;53.50;95171.59;5109494;28;20213;-66
2021/03/05 05:52:00;;;;;;;124.15;52.63;;;;;;;3.81;53.91;95167.44;5108639;28;20624;-66
2021/03/05 05:54:28;;;;;;;126.32;52.70;;;;;;;3.86;53.58;95154.66;5110472;28;20209;-67
2021/03/05 05:56:55;;;;;;;127.25;55.42;;;;;;;3.77;53.83;95169.66;5110448;28;20214;-61
2021/03/05 05:59:25;;;;;;;134.65;59.00;;;;;;;3.84;53.75;95178.19;5110523;28;20218;-63
2021/03/05 06:01:53;;;;;;;183.10;93.60;;;;;;;3.96;53.74;95186.88;5109976;28;20191;-65
2021/03/05 06:04:20;;;;;;;162.00;76.50;;;;;;;4.18;52.38;95174.41;5110207;28;20733;-64
2021/03/05 06:06:47;;;;;;;140.25;61.03;;;;;;;4.14;53.44;95175.84;5110206;28;20808;-66
2021/03/05 06:09:14;;;;;;;142.82;66.20;;;;;;;4.17;52.24;95162.44;5109969;28;20669;-70
2021/03/05 06:11:42;;;;;;;139.75;70.20;;;;;;;4.23;52.26;95172.00;5110160;28;20187;-71
2021/03/05 06:14:14;;;;;;;172.60;87.35;;;;;;;4.28;53.00;95172.16;5108685;28;20574;-70
2021/03/05 06:16:57;;;;;;;180.80;94.00;;;;;;;4.66;51.80;95172.88;5110446;28;20194;-67
2021/03/05 06:19:26;;;;;;;182.05;94.10;;;;;;;4.89;51.18;95167.88;5112956;28;20292;-67
2021/03/05 06:21:56;;;;;;;166.57;84.05;;;;;;;5.14;50.57;95171.25;5114396;28;20190;-68
2021/03/05 06:24:22;;;;;;;141.68;77.03;;;;;;;5.18;50.50;95176.00;5101829;27;20195;-67
2021/03/05 06:26:59;;;;;;;130.05;64.18;;;;;;;5.25;56.50;95184.53;5092392;28;20241;-67
2021/03/05 06:29:47;;;;;;;118.78;62.00;;;;;;;5.18;53.50;95170.81;5091972;28;20205;-66
2021/03/05 06:32:18;;;;;;;127.90;63.35;;;;;;;5.15;52.41;95172.84;5090597;28;20191;-65
2021/03/05 06:34:52;;;;;;;119.72;60.22;;;;;;;5.19;51.62;95173.19;5091329;28;20187;-69
2021/03/05 06:37:24;;;;;;;104.10;55.58;;;;;;;5.21;50.68;95175.56;5093698;28;20248;-70
2021/03/05 06:40:05;;;;;;;104.60;50.67;;;;;;;5.41;52.57;95176.16;5093090;28;20325;-67
2021/03/05 06:42:48;;;;;;;99.32;49.00;;;;;;;5.59;53.07;95168.34;5093660;28;20198;-66
2021/03/05 06:45:15;;;;;;;104.10;53.47;;;;;;;5.80;52.90;95171.28;5092927;28;20201;-68
2021/03/05 06:47:59;;;;;;;100.80;52.72;;;;;;;6.08;52.06;95168.97;5093672;28;20179;-67
2021/03/05 06:50:27;;;;;;;111.97;53.90;;;;;;;6.12;50.32;95164.13;5092887;28;20680;-66
2021/03/05 06:52:53;;;;;;;114.75;56.72;;;;;;;5.87;49.14;95174.66;5094665;28;20186;-67
2021/03/05 06:55:20;;;;;;;103.20;56.05;;;;;;;6.18;48.49;95163.25;5094270;28;20202;-70
2021/03/05 06:57:48;;;;;;;106.22;54.95;;;;;;;6.59;47.78;95171.03;5093310;28;20195;-70
2021/03/05 07:00:18;;;;;;;98.00;51.67;;;;;;;6.56;48.04;95155.88;5090784;28;20591;-66
2021/03/05 07:02:45;;;;;;;110.17;55.97;;;;;;;6.83;48.21;95166.66;5093225;28;20422;-68
2021/03/05 07:05:12;;;;;;;112.40;53.13;;;;;;;6.95;46.95;95165.63;5092005;28;20469;-66
2021/03/05 07:07:43;;;;;;;103.10;53.50;;;;;;;6.97;45.87;95160.22;5092785;28;20191;-69
2021/03/05 07:10:12;;;;;;;105.67;53.83;;;;;;;7.19;47.43;95166.44;5092403;28;20445;-71
2021/03/05 07:13:02;;;;;;;106.93;58.00;;;;;;;7.08;47.68;95165.41;5094187;28;20441;-66
2021/03/05 07:15:30;;;;;;;145.53;63.77;;;;;;;7.19;48.42;95167.22;5093385;28;20444;-66
2021/03/05 07:18:03;;;;;;;120.57;60.73;;;;;;;7.17;49.44;95158.84;5092962;28;20433;-67
2021/03/05 07:20:29;;;;;;;116.70;64.30;;;;;;;7.33;47.68;95151.38;5092708;28;20476;-67
2021/03/05 07:22:58;;;;;;;114.10;61.60;;;;;;;7.38;47.53;95161.88;5092616;28;20441;-65
2021/03/05 07:25:27;;;;;;;98.43;54.43;;;;;;;7.43;47.41;95152.38;5092515;28;20938;-68
2021/03/05 07:27:57;;;;;;;105.93;52.37;;;;;;;7.53;46.72;95151.78;5091604;28;20471;-66
2021/03/05 07:30:25;;;;;;;98.50;46.97;;;;;;;7.64;46.57;95145.75;5091831;28;20448;-71
2021/03/05 07:32:56;;;;;;;74.97;42.00;;;;;;;7.94;45.82;95154.16;5092525;28;20478;-69
2021/03/05 07:35:29;;;;;;;78.17;39.30;;;;;;;8.23;44.75;95147.91;5092157;28;21027;-68
2021/03/05 07:38:01;;;;;;;64.37;34.27;;;;;;;8.45;44.88;95146.25;5092493;28;20950;-65
2021/03/05 07:40:28;;;;;;;68.40;31.93;;;;;;;8.51;43.66;95140.09;5091525;28;20934;-67
2021/03/05 07:42:56;;;;;;;68.73;30.37;;;;;;;8.60;42.85;95149.13;5092531;28;20513;-71
2021/03/05 07:45:22;;;;;;;69.93;31.00;;;;;;;8.61;42.00;95150.69;5092307;28;20434;-68
2021/03/05 07:47:51;;;;;;;66.03;34.27;;;;;;;8.90;42.90;95126.09;5092526;28;20544;-68
2021/03/05 07:50:23;;;;;;;71.50;40.30;;;;;;;8.76;44.05;95130.03;5091248;28;20528;-69
2021/03/05 07:52:50;;;;;;;79.40;38.83;;;;;;;8.86;44.33;95132.81;5091907;28;20529;-66
2021/03/05 07:55:43;;;;;;;64.13;35.07;;;;;;;8.82;43.98;95146.59;5091888;28;20448;-68
2021/03/05 07:58:12;;;;;;;65.97;36.03;;;;;;;8.67;45.14;95139.31;5089513;28;20449;-71
2021/03/05 08:00:45;;;;;;;70.37;32.97;;;;;;;9.15;44.67;95142.13;5091719;28;20494;-68
2021/03/05 08:03:13;;;;;;;69.13;32.23;;;;;;;9.23;43.91;95147.97;5090491;28;20954;-69
2021/03/05 08:05:43;;;;;;;57.17;31.10;;;;;;;9.44;44.09;95140.16;5091237;28;20960;-71
2021/03/05 08:08:18;;;;;;;53.83;30.20;;;;;;;9.59;43.80;95123.88;5092398;28;20984;-68
2021/03/05 08:10:50;;;;;;;51.77;29.03;;;;;;;9.89;41.88;95121.63;5092071;28;20451;-69
2021/03/05 08:13:49;;;;;;;46.70;28.17;;;;;;;10.10;41.56;95126.06;5092361;28;20437;-72
2021/03/05 08:16:31;;;;;;;49.27;27.13;;;;;;;9.73;42.18;95119.84;5091153;28;20471;-69
2021/03/05 08:19:03;;;;;;;54.87;28.03;;;;;;;10.08;40.78;95113.19;5091269;28;20591;-68
2021/03/05 08:22:01;;;;;;;52.43;27.50;;;;;;;10.13;40.71;95107.22;5090797;28;20441;-68
2021/03/05 08:24:30;;;;;;;50.80;27.63;;;;;;;10.10;41.05;95112.97;5090898;28;20437;-69
2021/03/05 08:27:00;;;;;;;50.17;27.60;;;;;;;10.00;40.44;95112.81;5091772;28;20433;-69
2021/03/05 08:29:45;;;;;;;45.60;26.00;;;;;;;10.28;39.44;95110.00;5090587;28;20437;-70
2021/03/05 08:32:30;;;;;;;47.07;25.57;;;;;;;10.70;37.50;95110.91;5090979;28;20433;-68
2021/03/05 08:35:07;;;;;;;48.80;24.50;;;;;;;10.72;38.17;95094.91;5089397;28;20502;-67
2021/03/05 08:37:44;;;;;;;44.37;23.67;;;;;;;11.38;35.03;95098.75;5091093;28;21056;-72
2021/03/05 08:40:14;;;;;;;111.77;27.63;;;;;;;11.50;37.21;95096.69;5089293;28;21027;-67
2021/03/05 08:42:47;;;;;;;48.30;22.87;;;;;;;11.55;35.07;95088.88;5091158;28;20443;-69
2021/03/05 08:45:17;;;;;;;42.00;21.80;;;;;;;12.53;32.73;95085.19;5090558;28;20549;-71
2021/03/05 08:47:47;;;;;;;41.70;21.07;;;;;;;12.21;35.20;95077.53;5090933;28;21059;-69
2021/03/05 08:50:15;;;;;;;47.23;20.93;;;;;;;12.02;33.14;95090.34;5089965;28;20496;-66
2021/03/05 08:52:44;;;;;;;34.07;21.17;;;;;;;12.23;33.50;95075.41;5090747;28;20448;-67
2021/03/05 08:55:12;;;;;;;56.43;22.07;;;;;;;12.32;32.81;95076.47;5090221;28;20962;-72
2021/03/05 08:57:49;;;;;;;37.43;21.40;;;;;;;12.50;32.01;95065.47;5090770;28;20441;-69
2021/03/05 09:00:18;;;;;;;40.77;20.67;;;;;;;12.65;32.06;95065.47;5089594;28;20495;-70
2021/03/05 09:02:46;;;;;;;32.77;18.90;;;;;;;12.55;32.47;95072.56;5089760;28;20448;-71
2021/03/05 09:05:23;;;;;;;41.70;20.57;;;;;;;12.78;32.28;95067.56;5089751;28;20469;-68
2021/03/05 09:07:54;;;;;;;40.93;19.60;;;;;;;12.69;32.41;95063.88;5090619;28;20421;-70
2021/03/05 09:10:36;;;;;;;32.97;18.33;;;;;;;12.96;30.61;95067.00;5090188;28;20448;-68
2021/03/05 09:13:03;;;;;;;31.20;18.33;;;;;;;13.19;29.70;95058.56;5090630;28;20448;-68
2021/03/05 09:15:44;;;;;;;35.23;18.27;;;;;;;13.12;31.19;95046.75;5089883;28;20464;-69
2021/03/05 09:18:16;;;;;;;32.67;16.63;;;;;;;13.49;30.78;95046.38;5090785;28;20441;-71
2021/03/05 09:20:48;;;;;;;29.07;15.63;;;;;;;13.79;29.48;95046.25;5089543;28;20492;-67
2021/03/05 09:23:40;;;;;;;33.77;15.57;;;;;;;13.73;29.50;95042.84;5091143;28;20820;-69
2021/03/05 09:26:14;;;;;;;26.07;13.87;;;;;;;14.19;28.47;95038.91;5090390;28;21034;-69
2021/03/05 09:28:46;;;;;;;25.20;13.47;;;;;;;13.91;27.01;95030.91;5090814;28;20958;-69
2021/03/05 09:31:23;;;;;;;21.40;12.37;;;;;;;14.30;27.23;95037.00;5090783;28;20432;-68
2021/03/05 09:33:51;;;;;;;24.83;12.63;;;;;;;14.37;27.26;95032.22;5090344;28;20468;-69
2021/03/05 09:36:23;;;;;;;29.33;13.77;;;;;;;14.54;28.45;95029.97;5090275;28;20495;-71
2021/03/05 09:39:02;;;;;;;26.03;12.97;;;;;;;14.55;28.01;95012.28;5090603;28;20502;-66
2021/03/05 09:41:33;;;;;;;23.63;12.57;;;;;;;14.60;28.32;95017.50;5089789;28;20444;-69
2021/03/05 09:44:04;;;;;;;23.67;12.60;;;;;;;14.41;26.28;95033.25;5090021;28;20429;-69
2021/03/05 09:46:33;;;;;;;25.77;12.07;;;;;;;14.33;27.19;95028.56;5089642;28;20440;-70
2021/03/05 09:49:20;;;;;;;27.03;11.37;;;;;;;14.85;26.33;95026.00;5090139;28;20488;-69
2021/03/05 09:51:47;;;;;;;17.70;10.83;;;;;;;14.67;27.74;95010.84;5088707;28;20445;-69
2021/03/05 09:54:13;;;;;;;19.73;10.23;;;;;;;14.75;26.26;95004.19;5090073;28;20436;-70
2021/03/05 09:56:43;;;;;;;21.73;10.87;;;;;;;15.34;26.59;94999.38;5090460;28;20451;-68
2021/03/05 09:59:10;;;;;;;19.57;10.30;;;;;;;15.20;25.16;94999.25;5089693;28;20481;-70
2021/03/05 10:01:42;;;;;;;19.63;10.30;;;;;;;15.48;24.59;94994.19;5089760;28;20443;-70
2021/03/05 10:04:11;;;;;;;21.43;10.87;;;;;;;15.84;25.36;94987.38;5089699;28;20448;-69
2021/03/05 10:06:38;;;;;;;21.67;10.03;;;;;;;16.23;24.41;94987.88;5089471;28;20884;-69
2021/03/05 10:09:07;;;;;;;28.10;10.33;;;;;;;16.14;24.47;94979.03;5089727;28;20527;-68
2021/03/05 10:11:36;;;;;;;16.83;10.63;;;;;;;16.21;24.68;94982.09;5089124;28;20905;-71
2021/03/05 10:14:22;;;;;;;21.90;10.57;;;;;;;16.07;24.11;94975.97;5089502;28;20784;-72
2021/03/05 10:16:51;;;;;;;18.40;11.13;;;;;;;16.51;23.63;94970.28;5088390;28;20457;-68
2021/03/05 10:19:21;;;;;;;20.30;10.33;;;;;;;16.80;22.55;94971.63;5088914;28;20480;-71
2021/03/05 10:21:52;;;;;;;20.67;10.07;;;;;;;16.60;25.08;94964.03;5089344;28;20437;-70
2021/03/05 10:24:24;;;;;;;17.87;10.03;;;;;;;17.12;24.73;94955.66;5089165;28;20548;-72
2021/03/05 10:30:06;;;;;;;21.13;9.53;;;;;;;17.12;22.74;94945.06;5055217;28;20548;-70
2021/03/05 10:32:37;;;;;;;19.67;9.10;;;;;;;16.91;21.71;94937.81;5090144;28;20795;-71
2021/03/05 10:35:09;;;;;;;20.33;9.33;;;;;;;16.94;23.72;94938.00;5088876;28;20867;-67
2021/03/05 10:37:39;;;;;;;17.00;9.20;;;;;;;17.43;22.29;94925.91;5089292;28;20451;-70
2021/03/05 10:40:11;;;;;;;13.27;8.50;;;;;;;17.15;20.20;94933.13;5089055;28;20862;-69
2021/03/05 10:42:37;;;;;;;19.23;8.43;;;;;;;17.24;20.91;94926.81;5089210;28;20792;-68
2021/03/05 10:45:04;;;;;;;17.47;9.07;;;;;;;17.72;20.73;94923.72;5089069;28;20425;-68
2021/03/05 10:47:32;;;;;;;11.80;7.27;;;;;;;16.45;18.84;94924.59;5089225;28;20477;-71
2021/03/05 10:50:00;;;;;;;11.87;7.07;;;;;;;16.82;19.35;94913.88;5089357;28;20868;-68
2021/03/05 10:52:27;;;;;;;17.07;8.30;;;;;;;17.53;19.96;94912.50;5088911;28;20429;-71
2021/03/05 10:54:54;;;;;;;11.17;6.87;;;;;;;17.62;19.03;94897.44;5089201;28;20535;-71
2021/03/05 10:57:22;;;;;;;6.80;4.10;;;;;;;17.66;14.90;94898.44;5089781;28;20526;-72
2021/03/05 10:59:49;;;;;;;4.43;3.27;;;;;;;17.82;14.98;94899.66;5088199;28;20494;-68
2021/03/05 11:02:18;;;;;;;5.43;3.37;;;;;;;18.10;14.50;94895.81;5089227;28;20453;-69
2021/03/05 11:04:44;;;;;;;7.23;3.80;;;;;;;17.84;13.79;94887.69;5091615;28;20448;-69
2021/03/05 11:07:11;;;;;;;6.23;3.50;;;;;;;17.51;14.20;94881.00;5092899;28;20973;-70
2021/03/05 11:09:39;;;;;;;7.53;3.57;;;;;;;17.79;14.42;94884.34;5092431;28;20437;-71
2021/03/05 11:12:07;;;;;;;5.83;3.57;;;;;;;18.09;14.86;94868.50;5093153;28;20494;-68
2021/03/05 11:14:34;;;;;;;8.43;3.43;;;;;;;18.19;14.33;94873.56;5092638;28;20452;-71
2021/03/05 11:17:00;;;;;;;7.73;3.30;;;;;;;18.14;13.62;94867.59;5092947;28;20974;-70
2021/03/05 11:19:28;;;;;;;6.47;3.50;;;;;;;17.91;14.05;94860.75;5092177;28;20583;-70
2021/03/05 11:21:54;;;;;;;5.97;3.30;;;;;;;17.95;13.64;94859.84;5092941;28;20441;-73
2021/03/05 11:24:21;;;;;;;5.33;3.20;;;;;;;18.03;13.42;94850.34;5092850;28;20443;-67
2021/03/05 11:26:48;;;;;;;5.30;3.30;;;;;;;18.23;14.33;94849.09;5092458;28;20445;-67
2021/03/05 11:29:15;;;;;;;8.07;3.30;;;;;;;18.29;14.16;94850.50;5092238;28;20438;-71
2021/03/05 11:31:42;;;;;;;7.73;3.53;;;;;;;18.13;13.76;94850.91;5092278;28;20467;-73
2021/03/05 11:34:09;;;;;;;5.30;3.50;;;;;;;18.05;14.05;94837.59;5092707;28;20824;-67
2021/03/05 11:36:53;;;;;;;5.33;2.80;;;;;;;18.61;14.70;94827.13;5092283;28;20498;-71
2021/03/05 11:39:19;;;;;;;7.67;2.83;;;;;;;18.41;13.34;94827.66;5091762;28;20518;-70